sensor_id;sensor_type;location;lat;lon;timestamp;pressure;altitude;pressure_sealevel;temperature;humidity
55418;BME280;41287;47.554;7.844;2023-03-14T00:01:19;96633.78;;;16.45;60.71
55418;BME280;41287;47.554;7.844;2023-03-14T00:03:47;96644.59;;;16.45;60.74
55418;BME280;41287;47.554;7.844;2023-03-14T00:06:13;96664.31;;;16.46;60.78
55418;BME280;41287;47.554;7.844;2023-03-14T00:08:42;96671.63;;;16.45;60.69
55418;BME280;41287;47.554;7.844;2023-03-14T00:11:16;96685.16;;;16.45;60.81
55418;BME280;41287;47.554;7.844;2023-03-14T00:13:41;96681.31;;;16.46;60.83
55418;BME280;41287;47.554;7.844;2023-03-14T00:16:10;96683.25;;;16.46;60.81
55418;BME280;41287;47.554;7.844;2023-03-14T00:18:35;96696.75;;;16.46;60.82
55418;BME280;41287;47.554;7.844;2023-03-14T00:21:03;96700.25;;;16.46;60.72
55418;BME280;41287;47.554;7.844;2023-03-14T00:23:29;96689.44;;;16.46;60.64
55418;BME280;41287;47.554;7.844;2023-03-14T00:26:03;96694.06;;;16.46;60.82
55418;BME280;41287;47.554;7.844;2023-03-14T00:28:29;96685.94;;;16.46;60.66
55418;BME280;41287;47.554;7.844;2023-03-14T00:30:55;96678.63;;;16.46;60.78
55418;BME280;41287;47.554;7.844;2023-03-14T00:33:21;96669.72;;;16.46;60.82
55418;BME280;41287;47.554;7.844;2023-03-14T00:35:57;96656.59;;;16.44;60.82
55418;BME280;41287;47.554;7.844;2023-03-14T00:38:25;96655.06;;;16.47;60.67
55418;BME280;41287;47.554;7.844;2023-03-14T00:40:52;96646.19;;;16.46;60.71
55418;BME280;41287;47.554;7.844;2023-03-14T00:43:18;96648.09;;;16.46;60.78
55418;BME280;41287;47.554;7.844;2023-03-14T00:45:44;96653.50;;;16.46;60.71
55418;BME280;41287;47.554;7.844;2023-03-14T00:48:09;96658.91;;;16.46;60.78
55418;BME280;41287;47.554;7.844;2023-03-14T00:50:35;96662.41;;;16.46;60.70
55418;BME280;41287;47.554;7.844;2023-03-14T00:53:00;96657.00;;;16.46;60.82
55418;BME280;41287;47.554;7.844;2023-03-14T00:55:25;96678.63;;;16.46;60.63
55418;BME280;41287;47.554;7.844;2023-03-14T00:57:51;96691.34;;;16.46;60.86
55418;BME280;41287;47.554;7.844;2023-03-14T01:00:17;96686.72;;;16.46;60.76
55418;BME280;41287;47.554;7.844;2023-03-14T01:02:42;96690.22;;;16.47;60.72
55418;BME280;41287;47.554;7.844;2023-03-14T01:05:08;96690.22;;;16.47;60.81
55418;BME280;41287;47.554;7.844;2023-03-14T01:07:35;96693.72;;;16.47;60.62
55418;BME280;41287;47.554;7.844;2023-03-14T01:10:04;96690.22;;;16.47;60.68
55418;BME280;41287;47.554;7.844;2023-03-14T01:12:30;96685.59;;;16.47;60.76
55418;BME280;41287;47.554;7.844;2023-03-14T01:14:55;96682.09;;;16.47;60.72
55418;BME280;41287;47.554;7.844;2023-03-14T01:17:20;96681.31;;;16.46;60.72
55418;BME280;41287;47.554;7.844;2023-03-14T01:19:46;96681.31;;;16.46;60.80
55418;BME280;41287;47.554;7.844;2023-03-14T01:22:12;96684.03;;;16.46;60.64
55418;BME280;41287;47.554;7.844;2023-03-14T01:24:37;96682.91;;;16.47;60.82
55418;BME280;41287;47.554;7.844;2023-03-14T01:27:03;96665.88;;;16.47;60.85
55418;BME280;41287;47.554;7.844;2023-03-14T01:29:28;96659.69;;;16.46;60.81
55418;BME280;41287;47.554;7.844;2023-03-14T01:31:54;96649.66;;;16.47;60.82
55418;BME280;41287;47.554;7.844;2023-03-14T01:34:20;96651.59;;;16.46;60.74
55418;BME280;41287;47.554;7.844;2023-03-14T01:36:45;96655.06;;;16.47;60.89
55418;BME280;41287;47.554;7.844;2023-03-14T01:39:10;96663.97;;;16.47;60.87
55418;BME280;41287;47.554;7.844;2023-03-14T01:41:38;96655.84;;;16.47;60.83
55418;BME280;41287;47.554;7.844;2023-03-14T01:44:04;96652.38;;;16.47;60.71
55418;BME280;41287;47.554;7.844;2023-03-14T01:46:34;96655.84;;;16.47;60.74
55418;BME280;41287;47.554;7.844;2023-03-14T01:49:24;96651.59;;;16.46;60.75
55418;BME280;41287;47.554;7.844;2023-03-14T01:52:02;96650.78;;;16.46;60.87
55418;BME280;41287;47.554;7.844;2023-03-14T01:54:37;96653.16;;;16.47;60.78
55418;BME280;41287;47.554;7.844;2023-03-14T01:57:17;96644.25;;;16.47;60.63
55418;BME280;41287;47.554;7.844;2023-03-14T01:59:58;96643.47;;;16.46;60.87
55418;BME280;41287;47.554;7.844;2023-03-14T02:02:26;96647.75;;;16.47;60.72
55418;BME280;41287;47.554;7.844;2023-03-14T02:04:53;96640.78;;;16.46;60.78
55418;BME280;41287;47.554;7.844;2023-03-14T02:07:22;96631.88;;;16.46;60.84
55418;BME280;41287;47.554;7.844;2023-03-14T02:09:52;96631.09;;;16.45;60.83
55418;BME280;41287;47.554;7.844;2023-03-14T02:12:20;96629.59;;;16.48;61.21
55418;BME280;41287;47.554;7.844;2023-03-14T02:14:45;96619.94;;;16.47;60.76
55418;BME280;41287;47.554;7.844;2023-03-14T02:17:14;96606.41;;;16.47;60.74
55418;BME280;41287;47.554;7.844;2023-03-14T02:22:24;96599.09;;;16.47;60.91
55418;BME280;41287;47.554;7.844;2023-03-14T02:25:01;96585.91;;;16.46;60.92
55418;BME280;41287;47.554;7.844;2023-03-14T02:27:30;96590.97;;;16.47;60.86
55418;BME280;41287;47.554;7.844;2023-03-14T02:30:06;96585.91;;;16.46;60.82
55418;BME280;41287;47.554;7.844;2023-03-14T02:32:36;96579.38;;;16.47;60.85
55418;BME280;41287;47.554;7.844;2023-03-14T02:35:06;96565.06;;;16.46;60.79
55418;BME280;41287;47.554;7.844;2023-03-14T02:37:37;96563.94;;;16.47;60.76
55418;BME280;41287;47.554;7.844;2023-03-14T02:40:04;96562.38;;;16.46;60.88
55418;BME280;41287;47.554;7.844;2023-03-14T02:42:30;96556.97;;;16.46;60.91
55418;BME280;41287;47.554;7.844;2023-03-14T02:45:25;96548.84;;;16.46;60.88
55418;BME280;41287;47.554;7.844;2023-03-14T02:47:49;96538.81;;;16.47;60.88
55418;BME280;41287;47.554;7.844;2023-03-14T02:50:20;96539.59;;;16.47;60.81
55418;BME280;41287;47.554;7.844;2023-03-14T02:52:46;96542.66;;;16.46;60.71
55418;BME280;41287;47.554;7.844;2023-03-14T02:55:11;96533.41;;;16.47;60.72
55418;BME280;41287;47.554;7.844;2023-03-14T02:57:39;96530.72;;;16.47;60.83
55418;BME280;41287;47.554;7.844;2023-03-14T03:00:05;96530.72;;;16.47;60.76
55418;BME280;41287;47.554;7.844;2023-03-14T03:02:31;96516.41;;;16.46;60.81
55418;BME280;41287;47.554;7.844;2023-03-14T03:04:56;96523.38;;;16.47;60.85
55418;BME280;41287;47.554;7.844;2023-03-14T03:07:21;96513.34;;;16.48;60.92
55418;BME280;41287;47.554;7.844;2023-03-14T03:09:47;96509.88;;;16.47;60.74
55418;BME280;41287;47.554;7.844;2023-03-14T03:12:12;96506.38;;;16.47;60.79
55418;BME280;41287;47.554;7.844;2023-03-14T03:14:38;96510.22;;;16.46;60.95
55418;BME280;41287;47.554;7.844;2023-03-14T03:17:06;96511.78;;;16.47;60.89
55418;BME280;41287;47.554;7.844;2023-03-14T03:19:33;96513.34;;;16.48;60.95
55418;BME280;41287;47.554;7.844;2023-03-14T03:21:59;96510.66;;;16.48;60.94
55418;BME280;41287;47.554;7.844;2023-03-14T03:24:25;96509.09;;;16.47;60.89
55418;BME280;41287;47.554;7.844;2023-03-14T03:26:51;96507.16;;;16.47;60.88
55418;BME280;41287;47.554;7.844;2023-03-14T03:29:16;96499.06;;;16.47;60.82
55418;BME280;41287;47.554;7.844;2023-03-14T03:31:42;96494.44;;;16.48;60.89
55418;BME280;41287;47.554;7.844;2023-03-14T03:34:07;96482.84;;;16.47;60.83
55418;BME280;41287;47.554;7.844;2023-03-14T03:36:33;96491.72;;;16.48;60.80
55418;BME280;41287;47.554;7.844;2023-03-14T03:38:59;96492.06;;;16.46;60.86
55418;BME280;41287;47.554;7.844;2023-03-14T03:41:24;96482.41;;;16.45;60.87
55418;BME280;41287;47.554;7.844;2023-03-14T03:43:50;96482.03;;;16.47;61.02
55418;BME280;41287;47.554;7.844;2023-03-14T03:46:19;96486.66;;;16.46;60.82
55418;BME280;41287;47.554;7.844;2023-03-14T03:48:44;96478.56;;;16.46;60.89
55418;BME280;41287;47.554;7.844;2023-03-14T03:51:14;96482.41;;;16.45;60.61
55418;BME280;41287;47.554;7.844;2023-03-14T03:53:41;96482.84;;;16.47;60.90
55418;BME280;41287;47.554;7.844;2023-03-14T03:56:09;96474.72;;;16.47;60.73
55418;BME280;41287;47.554;7.844;2023-03-14T03:58:34;96471.22;;;16.47;60.83
55418;BME280;41287;47.554;7.844;2023-03-14T04:01:00;96472.00;;;16.47;60.93
55418;BME280;41287;47.554;7.844;2023-03-14T04:03:25;96471.22;;;16.47;61.00
55418;BME280;41287;47.554;7.844;2023-03-14T04:06:15;96457.72;;;16.47;61.01
55418;BME280;41287;47.554;7.844;2023-03-14T04:08:41;96453.88;;;16.48;60.83
55418;BME280;41287;47.554;7.844;2023-03-14T04:11:06;96447.69;;;16.47;60.88
55418;BME280;41287;47.554;7.844;2023-03-14T04:13:32;96442.28;;;16.47;60.70
55418;BME280;41287;47.554;7.844;2023-03-14T04:15:57;96436.88;;;16.47;60.65
55418;BME280;41287;47.554;7.844;2023-03-14T04:18:23;96434.16;;;16.47;60.85
55418;BME280;41287;47.554;7.844;2023-03-14T04:20:54;96432.25;;;16.48;60.92
55418;BME280;41287;47.554;7.844;2023-03-14T04:23:22;96423.34;;;16.47;60.93
55418;BME280;41287;47.554;7.844;2023-03-14T04:25:52;96414.47;;;16.47;60.88
55418;BME280;41287;47.554;7.844;2023-03-14T04:28:18;96411.75;;;16.47;61.00
55418;BME280;41287;47.554;7.844;2023-03-14T04:30:43;96422.22;;;16.48;60.89
55418;BME280;41287;47.554;7.844;2023-03-14T04:33:09;96412.53;;;16.47;60.87
55418;BME280;41287;47.554;7.844;2023-03-14T04:35:37;96414.47;;;16.47;60.91
55418;BME280;41287;47.554;7.844;2023-03-14T04:38:02;96410.97;;;16.46;60.98
55418;BME280;41287;47.554;7.844;2023-03-14T04:40:28;96404.44;;;16.47;60.98
55418;BME280;41287;47.554;7.844;2023-03-14T04:42:53;96400.94;;;16.47;60.88
55418;BME280;41287;47.554;7.844;2023-03-14T04:45:18;96398.25;;;16.47;61.06
55418;BME280;41287;47.554;7.844;2023-03-14T04:47:44;96377.41;;;16.47;61.02
55418;BME280;41287;47.554;7.844;2023-03-14T04:50:10;96382.03;;;16.47;60.95
55418;BME280;41287;47.554;7.844;2023-03-14T04:52:35;96382.81;;;16.47;60.96
55418;BME280;41287;47.554;7.844;2023-03-14T04:55:01;96383.22;;;16.49;60.87
55418;BME280;41287;47.554;7.844;2023-03-14T04:57:26;96376.25;;;16.48;60.80
55418;BME280;41287;47.554;7.844;2023-03-14T04:59:54;96369.28;;;16.47;60.97
55418;BME280;41287;47.554;7.844;2023-03-14T05:02:19;96363.88;;;16.47;60.87
55418;BME280;41287;47.554;7.844;2023-03-14T05:04:44;96358.47;;;16.47;60.90
55418;BME280;41287;47.554;7.844;2023-03-14T05:07:10;96342.25;;;16.47;60.89
55418;BME280;41287;47.554;7.844;2023-03-14T05:09:35;96351.94;;;16.48;60.94
55418;BME280;41287;47.554;7.844;2023-03-14T05:12:03;96342.31;;;16.51;61.14
55418;BME280;41287;47.554;7.844;2023-03-14T05:14:29;96325.44;;;16.57;61.13
55418;BME280;41287;47.554;7.844;2023-03-14T05:16:55;96326.28;;;16.62;61.37
55418;BME280;41287;47.554;7.844;2023-03-14T05:19:20;96329.09;;;16.69;61.16
55418;BME280;41287;47.554;7.844;2023-03-14T05:21:46;96326.44;;;16.72;61.37
55418;BME280;41287;47.554;7.844;2023-03-14T05:24:11;96331.91;;;16.76;62.03
55418;BME280;41287;47.554;7.844;2023-03-14T05:26:36;96335.44;;;16.80;62.91
55418;BME280;41287;47.554;7.844;2023-03-14T05:29:02;96321.56;;;16.81;63.75
55418;BME280;41287;47.554;7.844;2023-03-14T05:31:27;96328.19;;;16.84;64.61
55418;BME280;41287;47.554;7.844;2023-03-14T05:33:53;96311.22;;;16.87;65.27
55418;BME280;41287;47.554;7.844;2023-03-14T05:36:18;96314.34;;;16.89;66.30
55418;BME280;41287;47.554;7.844;2023-03-14T05:38:44;96309.34;;;16.91;67.83
55418;BME280;41287;47.554;7.844;2023-03-14T05:41:09;96309.72;;;16.89;67.42
55418;BME280;41287;47.554;7.844;2023-03-14T05:43:34;96296.91;;;16.86;67.25
55418;BME280;41287;47.554;7.844;2023-03-14T05:46:01;96287.97;;;16.82;66.44
55418;BME280;41287;47.554;7.844;2023-03-14T05:48:27;96277.50;;;16.81;65.99
55418;BME280;41287;47.554;7.844;2023-03-14T05:50:56;96263.56;;;16.79;65.43
55418;BME280;41287;47.554;7.844;2023-03-14T05:53:21;96278.25;;;16.78;65.40
55418;BME280;41287;47.554;7.844;2023-03-14T05:55:47;96282.47;;;16.75;64.95
55418;BME280;41287;47.554;7.844;2023-03-14T05:58:14;96280.09;;;16.74;64.61
55418;BME280;41287;47.554;7.844;2023-03-14T06:00:40;96282.03;;;16.73;64.51
55418;BME280;41287;47.554;7.844;2023-03-14T06:03:05;96286.66;;;16.73;64.03
55418;BME280;41287;47.554;7.844;2023-03-14T06:05:30;96287.81;;;16.72;64.45
55418;BME280;41287;47.554;7.844;2023-03-14T06:07:55;96284.34;;;16.71;63.84
55418;BME280;41287;47.554;7.844;2023-03-14T06:10:21;96299.78;;;16.71;63.69
55418;BME280;41287;47.554;7.844;2023-03-14T06:12:48;96300.13;;;16.69;63.55
55418;BME280;41287;47.554;7.844;2023-03-14T06:15:13;96292.81;;;16.70;63.45
55418;BME280;41287;47.554;7.844;2023-03-14T06:17:39;96288.53;;;16.69;63.29
55418;BME280;41287;47.554;7.844;2023-03-14T06:20:04;96284.28;;;16.68;63.14
55418;BME280;41287;47.554;7.844;2023-03-14T06:22:30;96286.19;;;16.67;62.98
55418;BME280;41287;47.554;7.844;2023-03-14T06:24:57;96286.56;;;16.66;62.93
55418;BME280;41287;47.554;7.844;2023-03-14T06:27:25;96289.25;;;16.66;62.92
55418;BME280;41287;47.554;7.844;2023-03-14T06:29:51;96298.16;;;16.66;62.93
55418;BME280;41287;47.554;7.844;2023-03-14T06:32:18;96289.25;;;16.66;62.83
55418;BME280;41287;47.554;7.844;2023-03-14T06:34:44;96286.94;;;16.64;62.83
55418;BME280;41287;47.554;7.844;2023-03-14T06:37:09;96284.22;;;16.64;63.05
55418;BME280;41287;47.554;7.844;2023-03-14T06:39:35;96281.53;;;16.64;62.66
55418;BME280;41287;47.554;7.844;2023-03-14T06:42:00;96278.03;;;16.64;62.73
55418;BME280;41287;47.554;7.844;2023-03-14T06:44:25;96277.25;;;16.63;62.74
55418;BME280;41287;47.554;7.844;2023-03-14T06:46:51;96266.44;;;16.63;62.70
55418;BME280;41287;47.554;7.844;2023-03-14T06:49:18;96262.97;;;16.63;62.65
55418;BME280;41287;47.554;7.844;2023-03-14T06:51:43;96263.75;;;16.63;62.65
55418;BME280;41287;47.554;7.844;2023-03-14T06:54:08;96263.31;;;16.61;62.58
55418;BME280;41287;47.554;7.844;2023-03-14T06:56:34;96259.84;;;16.61;62.08
55418;BME280;41287;47.554;7.844;2023-03-14T06:58:59;96259.84;;;16.61;62.54
55418;BME280;41287;47.554;7.844;2023-03-14T07:01:27;96266.34;;;16.59;62.43
55418;BME280;41287;47.554;7.844;2023-03-14T07:03:54;96270.66;;;16.61;62.46
55418;BME280;41287;47.554;7.844;2023-03-14T07:06:19;96271.44;;;16.61;62.42
55418;BME280;41287;47.554;7.844;2023-03-14T07:08:45;96270.19;;;16.58;62.36
55418;BME280;41287;47.554;7.844;2023-03-14T07:11:10;96277.97;;;16.60;62.54
55418;BME280;41287;47.554;7.844;2023-03-14T07:13:37;96271.75;;;16.59;62.33
55418;BME280;41287;47.554;7.844;2023-03-14T07:16:03;96272.56;;;16.60;62.42
55418;BME280;41287;47.554;7.844;2023-03-14T07:18:29;96287.19;;;16.59;62.30
55418;BME280;41287;47.554;7.844;2023-03-14T07:20:54;96283.38;;;16.60;62.17
55418;BME280;41287;47.554;7.844;2023-03-14T07:23:19;96277.56;;;16.58;62.41
55418;BME280;41287;47.554;7.844;2023-03-14T07:25:47;96291.06;;;16.58;62.23
55418;BME280;41287;47.554;7.844;2023-03-14T07:28:13;96293.00;;;16.57;62.16
55418;BME280;41287;47.554;7.844;2023-03-14T07:30:38;96294.91;;;16.57;62.32
55418;BME280;41287;47.554;7.844;2023-03-14T07:33:03;96308.03;;;16.58;62.28
55418;BME280;41287;47.554;7.844;2023-03-14T07:35:28;96306.50;;;16.57;62.08
55418;BME280;41287;47.554;7.844;2023-03-14T07:37:56;96308.44;;;16.57;61.93
55418;BME280;41287;47.554;7.844;2023-03-14T07:40:21;96320.03;;;16.57;62.26
55418;BME280;41287;47.554;7.844;2023-03-14T07:42:47;96318.47;;;16.56;62.15
55418;BME280;41287;47.554;7.844;2023-03-14T07:45:13;96331.97;;;16.56;62.26
55418;BME280;41287;47.554;7.844;2023-03-14T07:47:38;96329.28;;;16.56;62.28
55418;BME280;41287;47.554;7.844;2023-03-14T07:50:06;96331.19;;;16.56;62.10
55418;BME280;41287;47.554;7.844;2023-03-14T07:52:32;96333.13;;;16.55;62.29
55418;BME280;41287;47.554;7.844;2023-03-14T07:54:57;96333.91;;;16.56;62.35
55418;BME280;41287;47.554;7.844;2023-03-14T07:57:23;96337.75;;;16.55;62.17
55418;BME280;41287;47.554;7.844;2023-03-14T07:59:49;96333.13;;;16.55;62.08
55418;BME280;41287;47.554;7.844;2023-03-14T08:02:17;96331.56;;;16.54;62.08
55418;BME280;41287;47.554;7.844;2023-03-14T08:04:45;96338.53;;;16.55;62.19
55418;BME280;41287;47.554;7.844;2023-03-14T08:07:10;96343.16;;;16.55;62.09
55418;BME280;41287;47.554;7.844;2023-03-14T08:09:36;96343.94;;;16.55;62.16
55418;BME280;41287;47.554;7.844;2023-03-14T08:12:01;96349.34;;;16.55;62.18
55418;BME280;41287;47.554;7.844;2023-03-14T08:14:28;96357.44;;;16.55;62.20
55418;BME280;41287;47.554;7.844;2023-03-14T08:16:54;96354.31;;;16.53;62.07
55418;BME280;41287;47.554;7.844;2023-03-14T08:19:19;96358.59;;;16.54;62.04
55418;BME280;41287;47.554;7.844;2023-03-14T08:21:45;96350.47;;;16.54;62.11
55418;BME280;41287;47.554;7.844;2023-03-14T08:24:11;96356.25;;;16.53;62.05
55418;BME280;41287;47.554;7.844;2023-03-14T08:26:38;96358.94;;;16.53;62.12
55418;BME280;41287;47.554;7.844;2023-03-14T08:29:06;96363.56;;;16.52;61.99
55418;BME280;41287;47.554;7.844;2023-03-14T08:31:34;96368.63;;;16.54;62.07
55418;BME280;41287;47.554;7.844;2023-03-14T08:33:59;96371.31;;;16.54;62.03
55418;BME280;41287;47.554;7.844;2023-03-14T08:36:25;96368.97;;;16.52;62.12
55418;BME280;41287;47.554;7.844;2023-03-14T08:38:50;96372.47;;;16.53;62.21
55418;BME280;41287;47.554;7.844;2023-03-14T08:41:17;96373.25;;;16.53;62.13
55418;BME280;41287;47.554;7.844;2023-03-14T08:43:44;96371.69;;;16.52;62.15
55418;BME280;41287;47.554;7.844;2023-03-14T08:46:10;96374.38;;;16.52;62.01
55418;BME280;41287;47.554;7.844;2023-03-14T08:48:35;96363.56;;;16.52;61.97
55418;BME280;41287;47.554;7.844;2023-03-14T08:51:11;96365.50;;;16.52;62.13
55418;BME280;41287;47.554;7.844;2023-03-14T08:53:38;96368.97;;;16.52;62.03
55418;BME280;41287;47.554;7.844;2023-03-14T08:56:03;96374.38;;;16.52;62.15
55418;BME280;41287;47.554;7.844;2023-03-14T08:58:30;96372.81;;;16.51;62.13
55418;BME280;41287;47.554;7.844;2023-03-14T09:00:56;96380.94;;;16.51;62.02
55418;BME280;41287;47.554;7.844;2023-03-14T09:03:21;96370.13;;;16.51;62.02
55418;BME280;41287;47.554;7.844;2023-03-14T09:05:50;96375.53;;;16.51;61.89
55418;BME280;41287;47.554;7.844;2023-03-14T09:08:19;96383.63;;;16.51;62.06
55418;BME280;41287;47.554;7.844;2023-03-14T09:10:45;96388.28;;;16.51;62.13
55418;BME280;41287;47.554;7.844;2023-03-14T09:13:10;96386.34;;;16.51;62.35
55418;BME280;41287;47.554;7.844;2023-03-14T09:15:35;96384.81;;;16.50;61.98
55418;BME280;41287;47.554;7.844;2023-03-14T09:18:01;96391.00;;;16.51;62.05
55418;BME280;41287;47.554;7.844;2023-03-14T09:20:27;96391.75;;;16.51;61.96
55418;BME280;41287;47.554;7.844;2023-03-14T09:22:52;96398.31;;;16.50;61.90
55418;BME280;41287;47.554;7.844;2023-03-14T09:25:17;96401.41;;;16.52;62.07
55418;BME280;41287;47.554;7.844;2023-03-14T09:27:42;96398.31;;;16.50;62.04
55418;BME280;41287;47.554;7.844;2023-03-14T09:30:08;96404.88;;;16.49;62.04
55418;BME280;41287;47.554;7.844;2023-03-14T09:32:34;96409.13;;;16.50;61.99
55418;BME280;41287;47.554;7.844;2023-03-14T09:35:00;96406.44;;;16.50;61.96
55418;BME280;41287;47.554;7.844;2023-03-14T09:37:25;96409.91;;;16.51;61.92
55418;BME280;41287;47.554;7.844;2023-03-14T09:39:50;96427.28;;;16.50;62.04
55418;BME280;41287;47.554;7.844;2023-03-14T09:42:18;96434.25;;;16.51;61.93
55418;BME280;41287;47.554;7.844;2023-03-14T09:44:57;96437.31;;;16.49;61.95
55418;BME280;41287;47.554;7.844;2023-03-14T09:47:24;96450.81;;;16.49;62.02
55418;BME280;41287;47.554;7.844;2023-03-14T09:49:51;96456.22;;;16.49;61.96
55418;BME280;41287;47.554;7.844;2023-03-14T09:52:22;96468.97;;;16.49;62.08
55418;BME280;41287;47.554;7.844;2023-03-14T09:54:59;96466.25;;;16.49;62.01
55418;BME280;41287;47.554;7.844;2023-03-14T09:57:27;96470.88;;;16.48;61.96
55418;BME280;41287;47.554;7.844;2023-03-14T09:59:57;96477.06;;;16.49;61.88
55418;BME280;41287;47.554;7.844;2023-03-14T10:02:26;96483.25;;;16.49;62.01
55418;BME280;41287;47.554;7.844;2023-03-14T10:04:54;96482.47;;;16.49;61.96
55418;BME280;41287;47.554;7.844;2023-03-14T10:07:29;96489.38;;;16.46;61.87
55418;BME280;41287;47.554;7.844;2023-03-14T10:09:56;96491.38;;;16.49;62.00
55418;BME280;41287;47.554;7.844;2023-03-14T10:12:31;96492.84;;;16.47;61.91
55418;BME280;41287;47.554;7.844;2023-03-14T10:15:03;96507.94;;;16.48;61.90
55418;BME280;41287;47.554;7.844;2023-03-14T10:17:29;96507.59;;;16.49;61.92
55418;BME280;41287;47.554;7.844;2023-03-14T10:19:59;96513.34;;;16.48;61.90
55418;BME280;41287;47.554;7.844;2023-03-14T10:22:29;96516.06;;;16.48;61.93
55418;BME280;41287;47.554;7.844;2023-03-14T10:24:57;96516.84;;;16.48;61.89
55418;BME280;41287;47.554;7.844;2023-03-14T10:27:33;96524.53;;;16.46;61.89
55418;BME280;41287;47.554;7.844;2023-03-14T10:30:02;96530.34;;;16.48;61.91
55418;BME280;41287;47.554;7.844;2023-03-14T10:32:36;96536.91;;;16.47;61.91
55418;BME280;41287;47.554;7.844;2023-03-14T10:37:32;96543.44;;;16.46;61.95
55418;BME280;41287;47.554;7.844;2023-03-14T10:40:01;96548.06;;;16.46;61.94
55418;BME280;41287;47.554;7.844;2023-03-14T10:42:31;96554.59;;;16.45;61.91
55418;BME280;41287;47.554;7.844;2023-03-14T10:45:19;96572.03;;;16.47;61.81
55418;BME280;41287;47.554;7.844;2023-03-14T10:47:50;96567.44;;;16.48;61.92
55418;BME280;41287;47.554;7.844;2023-03-14T10:50:27;96578.59;;;16.46;61.99
55418;BME280;41287;47.554;7.844;2023-03-14T10:52:54;96578.59;;;16.46;61.90
55418;BME280;41287;47.554;7.844;2023-03-14T10:55:23;96592.88;;;16.47;61.96
55418;BME280;41287;47.554;7.844;2023-03-14T10:57:51;96595.94;;;16.45;61.89
55418;BME280;41287;47.554;7.844;2023-03-14T11:00:19;96601.34;;;16.45;61.91
55418;BME280;41287;47.554;7.844;2023-03-14T11:03:10;96607.91;;;16.44;61.86
55418;BME280;41287;47.554;7.844;2023-03-14T11:08:20;96644.19;;;16.43;61.92
55418;BME280;41287;47.554;7.844;2023-03-14T11:10:52;96645.38;;;16.46;61.89
55418;BME280;41287;47.554;7.844;2023-03-14T11:13:25;96662.75;;;16.45;61.81
55418;BME280;41287;47.554;7.844;2023-03-14T11:16:01;96674.72;;;16.44;61.91
55418;BME280;41287;47.554;7.844;2023-03-14T11:21:45;96691.28;;;16.42;62.03
55418;BME280;41287;47.554;7.844;2023-03-14T11:24:27;96713.34;;;16.44;62.03
55418;BME280;41287;47.554;7.844;2023-03-14T11:27:17;96709.06;;;16.43;61.91
55418;BME280;41287;47.554;7.844;2023-03-14T11:29:55;96728.00;;;16.43;62.01
55418;BME280;41287;47.554;7.844;2023-03-14T11:32:45;96722.59;;;16.43;62.00
55418;BME280;41287;47.554;7.844;2023-03-14T11:35:18;96739.59;;;16.44;61.99
55418;BME280;41287;47.554;7.844;2023-03-14T11:40:31;96751.97;;;16.45;61.98
55418;BME280;41287;47.554;7.844;2023-03-14T11:43:27;96748.84;;;16.43;62.04
55418;BME280;41287;47.554;7.844;2023-03-14T11:45:58;96757.75;;;16.43;61.97
55418;BME280;41287;47.554;7.844;2023-03-14T11:48:35;96763.94;;;16.44;62.00
55418;BME280;41287;47.554;7.844;2023-03-14T11:51:05;96772.03;;;16.44;61.91
55418;BME280;41287;47.554;7.844;2023-03-14T11:53:54;96773.97;;;16.43;61.81
55418;BME280;41287;47.554;7.844;2023-03-14T11:56:37;96787.47;;;16.43;61.92
55418;BME280;41287;47.554;7.844;2023-03-14T11:59:12;96781.28;;;16.43;61.94
55418;BME280;41287;47.554;7.844;2023-03-14T12:01:54;96788.59;;;16.42;61.99
55418;BME280;41287;47.554;7.844;2023-03-14T12:04:31;96794.00;;;16.42;61.83
55418;BME280;41287;47.554;7.844;2023-03-14T12:07:03;96804.81;;;16.42;61.87
55418;BME280;41287;47.554;7.844;2023-03-14T12:09:32;96814.50;;;16.43;61.83
55418;BME280;41287;47.554;7.844;2023-03-14T12:12:02;96825.31;;;16.43;61.82
55418;BME280;41287;47.554;7.844;2023-03-14T12:14:34;96823.75;;;16.42;61.99
55418;BME280;41287;47.554;7.844;2023-03-14T12:17:20;96831.41;;;16.40;62.02
55418;BME280;41287;47.554;7.844;2023-03-14T12:19:45;96845.38;;;16.42;61.95
55418;BME280;41287;47.554;7.844;2023-03-14T12:22:24;96853.50;;;16.42;62.01
55418;BME280;41287;47.554;7.844;2023-03-14T12:30:40;96876.59;;;16.40;61.89
55418;BME280;41287;47.554;7.844;2023-03-14T12:35:44;96912.97;;;16.42;61.76
55418;BME280;41287;47.554;7.844;2023-03-14T12:38:28;96938.78;;;16.40;61.81
55418;BME280;41287;47.554;7.844;2023-03-14T12:43:34;96951.94;;;16.41;61.85
55418;BME280;41287;47.554;7.844;2023-03-14T12:48:43;96970.09;;;16.41;61.84
55418;BME280;41287;47.554;7.844;2023-03-14T12:51:17;97016.03;;;16.41;62.00
55418;BME280;41287;47.554;7.844;2023-03-14T12:59:38;97022.25;;;16.41;61.92
55418;BME280;41287;47.554;7.844;2023-03-14T13:04:45;97023.69;;;16.39;61.99
55418;BME280;41287;47.554;7.844;2023-03-14T13:10:03;97014.81;;;16.38;61.99
55418;BME280;41287;47.554;7.844;2023-03-14T13:12:37;97020.31;;;16.42;61.80
55418;BME280;41287;47.554;7.844;2023-03-14T13:15:14;97014.47;;;16.40;61.71
55418;BME280;41287;47.554;7.844;2023-03-14T13:17:42;97014.47;;;16.40;61.86
55418;BME280;41287;47.554;7.844;2023-03-14T13:20:21;97023.69;;;16.39;61.74
55418;BME280;41287;47.554;7.844;2023-03-14T13:22:48;97019.88;;;16.40;61.82
55418;BME280;41287;47.554;7.844;2023-03-14T13:25:14;97015.59;;;16.39;61.82
55418;BME280;41287;47.554;7.844;2023-03-14T13:27:41;97024.50;;;16.39;61.86
55418;BME280;41287;47.554;7.844;2023-03-14T13:30:23;97030.25;;;16.38;61.89
55418;BME280;41287;47.554;7.844;2023-03-14T13:32:50;97036.09;;;16.40;61.88
55418;BME280;41287;47.554;7.844;2023-03-14T13:35:23;97032.59;;;16.39;61.96
55418;BME280;41287;47.554;7.844;2023-03-14T13:38:00;97041.06;;;16.38;61.96
55418;BME280;41287;47.554;7.844;2023-03-14T13:40:30;97046.13;;;16.39;61.88
55418;BME280;41287;47.554;7.844;2023-03-14T13:43:09;97051.88;;;16.38;61.53
55418;BME280;41287;47.554;7.844;2023-03-14T13:45:55;97069.66;;;16.39;61.95